Time;durP1;ratioP1;P1;durP2;ratioP2;P2;SDS_P1;SDS_P2;PMS_P1;PMS_P2;Temp;Humidity;BMP_temperature;BMP_pressure;BME280_temperature;BME280_humidity;BME280_pressure;Samples;Min_cycle;Max_cycle;Signal;HPM_P1;HPM_P2
2023/01/07 00:01:12;;;;;;;47.87;27.80;;;9.30;99.90;;;;;;4889961;29;20756;-87
2023/01/07 00:03:38;;;;;;;53.70;28.77;;;9.40;99.90;;;;;;4899599;29;20048;-86
2023/01/07 00:06:09;;;;;;;50.27;27.90;;;9.50;99.90;;;;;;4899568;29;20193;-86
2023/01/07 00:08:36;;;;;;;49.30;28.70;;;9.50;99.90;;;;;;4894834;29;20041;-86
2023/01/07 00:11:04;;;;;;;52.87;28.37;;;9.50;99.90;;;;;;4872490;29;20055;-86
2023/01/07 00:13:30;;;;;;;44.40;27.03;;;9.50;99.90;;;;;;4884034;29;20114;-86
2023/01/07 00:16:07;;;;;;;44.80;26.73;;;9.50;99.90;;;;;;4875875;29;20091;-87
2023/01/07 00:18:34;;;;;;;48.70;27.53;;;9.50;99.90;;;;;;4879079;29;20080;-87
2023/01/07 00:21:04;;;;;;;48.93;27.33;;;9.60;99.90;;;;;;4893629;29;20062;-86
2023/01/07 00:23:31;;;;;;;42.90;25.97;;;9.60;99.90;;;;;;4915028;29;20064;-86
2023/01/07 00:26:17;;;;;;;48.20;27.77;;;9.60;99.90;;;;;;4879223;29;20526;-86
2023/01/07 00:28:45;;;;;;;44.33;26.03;;;9.70;99.90;;;;;;4865355;29;20048;-86
2023/01/07 00:31:13;;;;;;;45.87;26.83;;;9.70;99.90;;;;;;4882053;29;20390;-85
2023/01/07 00:36:26;;;;;;;51.43;28.27;;;9.70;99.90;;;;;;4867309;29;20088;-86
2023/01/07 00:38:55;;;;;;;44.67;26.97;;;9.70;99.90;;;;;;4880652;29;20164;-86
2023/01/07 00:41:21;;;;;;;49.73;26.90;;;9.70;99.90;;;;;;4880399;29;20096;-87
2023/01/07 00:43:47;;;;;;;48.33;28.03;;;9.80;99.90;;;;;;4880589;29;20056;-87
2023/01/07 00:46:14;;;;;;;48.67;28.57;;;9.80;99.90;;;;;;4899008;29;20135;-84
2023/01/07 00:48:40;;;;;;;44.60;26.20;;;9.80;99.90;;;;;;4883283;29;20060;-85
2023/01/07 00:51:09;;;;;;;42.90;25.37;;;9.80;99.90;;;;;;4879011;29;20041;-86
2023/01/07 00:53:35;;;;;;;48.47;27.83;;;9.80;99.90;;;;;;4889145;29;20052;-86
2023/01/07 00:56:00;;;;;;;49.13;27.40;;;9.90;99.90;;;;;;4873005;29;20051;-85
2023/01/07 00:58:26;;;;;;;51.20;28.53;;;9.90;99.90;;;;;;4881281;29;20088;-86
2023/01/07 01:00:57;;;;;;;46.73;27.37;;;9.90;99.90;;;;;;4880103;29;20131;-86
2023/01/07 01:03:23;;;;;;;44.13;27.30;;;10.00;99.90;;;;;;4864626;29;20100;-85
2023/01/07 01:05:49;;;;;;;47.10;28.27;;;9.90;99.90;;;;;;4880012;29;20052;-86
2023/01/07 01:08:17;;;;;;;45.30;27.53;;;10.00;99.90;;;;;;4892185;29;20056;-86
2023/01/07 01:10:46;;;;;;;43.00;26.50;;;10.00;99.90;;;;;;4914320;29;20107;-86
2023/01/07 01:13:14;;;;;;;47.20;28.53;;;10.00;99.90;;;;;;4893581;29;20112;-85
2023/01/07 01:15:47;;;;;;;46.17;27.80;;;10.00;99.90;;;;;;4910690;29;20049;-86
2023/01/07 01:18:14;;;;;;;49.23;27.83;;;10.00;99.90;;;;;;4910804;29;20099;-86
2023/01/07 01:20:40;;;;;;;45.37;27.43;;;10.00;99.90;;;;;;4897910;29;20051;-86
2023/01/07 01:23:07;;;;;;;52.37;29.73;;;10.00;99.90;;;;;;4898406;29;20166;-86
2023/01/07 01:25:33;;;;;;;52.10;28.60;;;10.00;99.90;;;;;;4895289;29;20044;-86
2023/01/07 01:27:59;;;;;;;49.60;28.83;;;10.10;99.90;;;;;;4913747;29;20260;-86
2023/01/07 01:30:25;;;;;;;50.57;28.50;;;10.00;99.90;;;;;;4901115;29;20338;-84
2023/01/07 01:32:50;;;;;;;51.00;27.83;;;10.10;99.90;;;;;;4899245;29;20484;-84
2023/01/07 01:35:16;;;;;;;56.80;30.10;;;10.10;99.90;;;;;;4888078;29;20139;-85
2023/01/07 01:37:42;;;;;;;49.07;28.13;;;10.10;99.90;;;;;;4902399;29;20107;-86
2023/01/07 01:40:13;;;;;;;55.67;29.43;;;10.10;99.90;;;;;;4886804;29;20056;-86
2023/01/07 01:42:39;;;;;;;57.33;29.80;;;10.10;99.90;;;;;;4902031;29;20127;-86
2023/01/07 01:45:05;;;;;;;54.50;30.10;;;10.10;99.90;;;;;;4901700;29;20140;-85
2023/01/07 01:47:34;;;;;;;50.50;29.57;;;10.10;99.90;;;;;;4914628;29;20052;-86
2023/01/07 01:50:15;;;;;;;53.47;29.70;;;10.20;99.90;;;;;;4883611;29;20092;-86
2023/01/07 01:52:53;;;;;;;55.20;31.47;;;10.20;99.90;;;;;;4899037;29;20091;-86
2023/01/07 01:55:26;;;;;;;48.80;29.33;;;10.20;99.90;;;;;;4879137;29;20070;-86
2023/01/07 01:57:55;;;;;;;55.30;31.77;;;10.20;99.90;;;;;;4885765;29;20059;-85
2023/01/07 02:00:21;;;;;;;51.50;30.47;;;10.20;99.90;;;;;;4899884;29;20056;-88
2023/01/07 02:02:51;;;;;;;47.00;30.37;;;10.20;99.90;;;;;;4869324;29;20056;-86
2023/01/07 02:05:17;;;;;;;55.20;31.50;;;10.20;99.90;;;;;;4883318;29;20088;-85
2023/01/07 02:07:43;;;;;;;50.53;29.70;;;10.20;99.90;;;;;;4898525;29;20055;-84
2023/01/07 02:10:14;;;;;;;47.00;29.00;;;10.20;99.90;;;;;;4882905;29;20052;-85
2023/01/07 02:12:59;;;;;;;49.13;29.70;;;10.30;99.90;;;;;;4900792;29;20056;-85
2023/01/07 02:15:50;;;;;;;50.30;29.57;;;10.20;99.90;;;;;;4885701;29;20079;-85
2023/01/07 02:18:42;;;;;;;49.40;29.87;;;10.20;99.90;;;;;;4901166;29;20079;-85
2023/01/07 02:21:33;;;;;;;44.57;29.40;;;10.20;99.90;;;;;;4882797;29;20055;-86
2023/01/07 02:24:05;;;;;;;43.07;27.90;;;10.20;99.90;;;;;;4904645;29;20052;-89
2023/01/07 02:26:56;;;;;;;45.90;27.80;;;10.20;99.90;;;;;;4901856;29;20144;-89
2023/01/07 02:29:37;;;;;;;39.63;25.90;;;10.30;99.90;;;;;;4901156;29;20055;-89
2023/01/07 02:32:24;;;;;;;48.63;29.47;;;10.30;99.90;;;;;;4900611;29;20048;-90
2023/01/07 02:35:22;;;;;;;45.23;29.07;;;10.30;99.90;;;;;;4904616;29;20542;-91
2023/01/07 02:37:56;;;;;;;46.17;29.53;;;10.30;99.90;;;;;;4844105;29;20045;-89
2023/01/07 02:40:28;;;;;;;47.70;28.73;;;10.30;99.90;;;;;;4891196;29;20124;-89
2023/01/07 02:43:18;;;;;;;45.08;29.70;;;10.30;99.90;;;;;;4902898;29;20500;-89
2023/01/07 02:45:53;;;;;;;44.97;28.03;;;10.30;99.90;;;;;;4903371;29;20516;-89
2023/01/07 02:48:21;;;;;;;42.60;27.00;;;10.30;99.90;;;;;;4900182;29;20143;-88
2023/01/07 02:50:46;;;;;;;41.43;27.10;;;10.30;99.90;;;;;;4900917;29;20059;-88
2023/01/07 02:53:17;;;;;;;40.13;26.83;;;10.30;99.90;;;;;;4901487;29;20127;-87
2023/01/07 02:55:58;;;;;;;41.17;26.90;;;10.30;99.90;;;;;;4906417;29;20044;-90
2023/01/07 02:58:48;;;;;;;40.87;27.57;;;10.30;99.90;;;;;;4902198;29;20461;-90
2023/01/07 03:01:26;;;;;;;39.67;27.30;;;10.30;99.90;;;;;;4900690;29;20408;-90
2023/01/07 03:04:12;;;;;;;38.57;26.47;;;10.30;99.90;;;;;;4903847;29;20111;-89
2023/01/07 03:06:50;;;;;;;37.57;26.03;;;10.30;99.90;;;;;;4882382;29;20530;-90
2023/01/07 03:09:24;;;;;;;34.50;24.87;;;10.30;99.90;;;;;;4902612;29;20052;-88
2023/01/07 03:12:30;;;;;;;37.20;24.87;;;10.30;99.90;;;;;;4904007;29;20068;-89
2023/01/07 03:15:24;;;;;;;37.73;25.53;;;10.30;99.90;;;;;;4901111;29;20412;-89
2023/01/07 03:18:03;;;;;;;35.33;24.73;;;10.30;99.90;;;;;;4899693;29;20088;-90
2023/01/07 03:20:32;;;;;;;37.70;26.30;;;10.30;99.90;;;;;;4900352;29;20108;-88
2023/01/07 03:22:58;;;;;;;35.87;25.40;;;10.30;99.90;;;;;;4899277;29;20576;-88
2023/01/07 03:25:27;;;;;;;39.43;25.90;;;10.30;99.90;;;;;;4869357;29;20123;-89
2023/01/07 03:27:54;;;;;;;37.50;24.83;;;10.30;99.90;;;;;;4900094;29;20060;-88
2023/01/07 03:30:22;;;;;;;37.70;25.10;;;10.30;99.90;;;;;;4900762;29;20403;-90
2023/01/07 03:33:03;;;;;;;34.37;24.47;;;10.30;99.90;;;;;;4869169;29;20048;-89
2023/01/07 03:35:31;;;;;;;36.60;24.03;;;10.30;99.90;;;;;;4901022;29;20060;-89
2023/01/07 03:38:00;;;;;;;36.97;25.33;;;10.30;99.90;;;;;;4903438;29;20131;-88
2023/01/07 03:40:27;;;;;;;34.87;24.63;;;10.30;99.90;;;;;;4899448;29;20088;-88
2023/01/07 03:42:53;;;;;;;31.27;23.00;;;10.30;99.90;;;;;;4898595;29;20531;-89
2023/01/07 03:45:21;;;;;;;35.07;23.87;;;10.30;99.90;;;;;;4902070;29;20052;-88
2023/01/07 03:47:54;;;;;;;32.57;23.20;;;10.30;99.90;;;;;;4886593;29;20051;-89
2023/01/07 03:50:21;;;;;;;34.90;22.97;;;10.30;99.90;;;;;;4870587;29;20052;-87
2023/01/07 03:52:47;;;;;;;33.30;23.13;;;10.30;99.90;;;;;;4869094;29;20123;-88
2023/01/07 03:55:13;;;;;;;29.67;23.00;;;10.30;99.90;;;;;;4869019;29;20048;-90
2023/01/07 03:57:39;;;;;;;32.57;22.90;;;10.30;99.90;;;;;;4900155;29;20535;-89
2023/01/07 04:00:09;;;;;;;32.27;21.53;;;10.20;99.90;;;;;;4899384;29;20048;-88
2023/01/07 04:02:35;;;;;;;28.93;21.77;;;10.30;99.90;;;;;;4898378;29;20104;-88
2023/01/07 04:05:01;;;;;;;31.90;22.20;;;10.20;99.90;;;;;;4914830;29;20053;-88
2023/01/07 04:07:27;;;;;;;30.97;22.80;;;10.30;99.90;;;;;;4884239;29;20056;-89
2023/01/07 04:09:53;;;;;;;30.47;22.27;;;10.20;99.90;;;;;;4879986;29;20084;-89
2023/01/07 04:12:18;;;;;;;32.90;22.40;;;10.20;99.90;;;;;;4900302;29;20056;-88
2023/01/07 04:14:44;;;;;;;30.17;21.77;;;10.20;99.90;;;;;;4898437;29;20082;-88
2023/01/07 04:17:11;;;;;;;30.13;21.90;;;10.20;99.90;;;;;;4852752;29;20579;-87
2023/01/07 04:19:38;;;;;;;29.87;21.27;;;10.20;99.90;;;;;;4852271;29;20099;-87
2023/01/07 04:22:06;;;;;;;29.63;20.90;;;10.20;99.90;;;;;;4883894;29;20318;-90
2023/01/07 04:24:32;;;;;;;31.77;21.37;;;10.20;99.90;;;;;;4880143;29;20048;-88
2023/01/07 04:26:57;;;;;;;30.53;21.30;;;10.20;99.90;;;;;;4898007;29;20109;-88
2023/01/07 04:29:23;;;;;;;29.70;20.80;;;10.10;99.90;;;;;;4901833;29;20044;-90
2023/01/07 04:31:50;;;;;;;28.67;20.73;;;10.10;99.90;;;;;;4869464;29;20748;-88
2023/01/07 04:34:15;;;;;;;30.30;21.03;;;10.10;99.90;;;;;;4902426;29;20345;-87
2023/01/07 04:36:41;;;;;;;29.43;21.27;;;10.10;99.90;;;;;;4901834;29;20100;-88
2023/01/07 04:39:07;;;;;;;29.10;20.10;;;10.10;99.90;;;;;;4900622;29;20044;-88
2023/01/07 04:41:33;;;;;;;25.77;20.23;;;10.10;99.90;;;;;;4901308;29;20412;-87
2023/01/07 04:43:58;;;;;;;31.50;20.50;;;10.20;99.90;;;;;;4883024;29;20059;-89
2023/01/07 04:46:24;;;;;;;25.00;19.43;;;10.10;99.90;;;;;;4898183;29;20053;-89
2023/01/07 04:48:50;;;;;;;28.10;19.77;;;10.10;99.90;;;;;;4899289;29;20484;-88
2023/01/07 04:51:16;;;;;;;25.57;19.57;;;10.10;99.90;;;;;;4886510;29;20036;-89
2023/01/07 04:53:42;;;;;;;26.60;19.37;;;10.10;99.90;;;;;;4901870;29;20465;-89
2023/01/07 04:56:07;;;;;;;24.77;19.30;;;10.10;99.90;;;;;;4901750;29;20124;-92
2023/01/07 04:58:33;;;;;;;24.97;18.73;;;10.10;99.90;;;;;;4889785;29;20048;-88
2023/01/07 05:01:01;;;;;;;26.17;18.83;;;10.10;99.90;;;;;;4872810;29;20057;-88
2023/01/07 05:03:27;;;;;;;24.00;18.50;;;10.10;99.90;;;;;;4909537;29;20048;-88
2023/01/07 05:05:53;;;;;;;24.47;18.37;;;10.10;99.90;;;;;;4866634;29;20166;-88
2023/01/07 05:08:19;;;;;;;25.67;18.53;;;10.10;99.90;;;;;;4870444;29;20070;-88
2023/01/07 05:10:47;;;;;;;25.80;18.20;;;10.10;99.90;;;;;;4886615;29;20040;-89
2023/01/07 05:13:17;;;;;;;24.33;17.13;;;10.10;99.90;;;;;;4900620;29;20060;-89
2023/01/07 05:15:43;;;;;;;26.67;16.97;;;10.10;99.90;;;;;;4870603;29;20051;-88
2023/01/07 05:18:09;;;;;;;22.57;16.50;;;10.10;99.90;;;;;;4902011;29;20056;-88
2023/01/07 05:20:35;;;;;;;23.50;17.23;;;10.10;99.90;;;;;;4918373;29;20048;-88
2023/01/07 05:23:01;;;;;;;25.63;17.83;;;10.10;99.90;;;;;;4901119;29;20052;-89
2023/01/07 05:25:27;;;;;;;23.03;16.97;;;10.20;99.90;;;;;;4885256;29;20056;-89
2023/01/07 05:27:52;;;;;;;23.67;16.97;;;10.10;99.90;;;;;;4864641;29;20045;-88
2023/01/07 05:30:18;;;;;;;21.93;16.60;;;10.10;99.90;;;;;;4876679;29;20052;-86
2023/01/07 05:32:44;;;;;;;23.17;16.57;;;10.10;99.90;;;;;;4884142;29;20063;-88
2023/01/07 05:35:10;;;;;;;21.03;16.80;;;10.10;99.90;;;;;;4899240;29;20386;-89
2023/01/07 05:37:35;;;;;;;21.23;16.47;;;10.10;99.90;;;;;;4916205;29;20416;-88
2023/01/07 05:40:02;;;;;;;20.80;15.67;;;10.10;99.90;;;;;;4884816;29;20048;-88
2023/01/07 05:42:28;;;;;;;20.93;15.77;;;10.10;99.90;;;;;;4881531;29;20060;-89
2023/01/07 05:44:53;;;;;;;19.87;14.73;;;10.10;99.90;;;;;;4897273;29;20045;-87
2023/01/07 05:47:19;;;;;;;19.93;15.23;;;10.10;99.90;;;;;;4881191;29;20063;-89
2023/01/07 05:49:45;;;;;;;21.03;15.30;;;10.10;99.90;;;;;;4866414;29;20052;-89
2023/01/07 05:52:11;;;;;;;20.80;15.03;;;10.10;99.90;;;;;;4883020;29;20055;-88
2023/01/07 05:54:36;;;;;;;21.70;15.40;;;10.10;99.90;;;;;;4897296;29;20051;-89
2023/01/07 05:57:02;;;;;;;20.80;14.40;;;10.10;99.90;;;;;;4901137;29;20119;-89
2023/01/07 05:59:28;;;;;;;18.77;14.37;;;10.10;99.90;;;;;;4884668;29;20138;-88
2023/01/07 06:01:54;;;;;;;19.37;14.60;;;10.10;99.90;;;;;;4859502;29;20049;-88
2023/01/07 06:04:20;;;;;;;18.90;14.20;;;10.10;99.90;;;;;;4867630;29;20059;-89
2023/01/07 06:06:45;;;;;;;19.47;14.63;;;10.10;99.90;;;;;;4885589;29;20050;-89
2023/01/07 06:09:11;;;;;;;17.77;14.37;;;10.10;99.90;;;;;;4885611;29;20051;-88
2023/01/07 06:11:37;;;;;;;19.60;14.20;;;10.10;99.90;;;;;;4885199;29;20693;-89
2023/01/07 06:14:04;;;;;;;18.80;13.87;;;10.10;99.90;;;;;;4883835;29;20052;-89
2023/01/07 06:16:30;;;;;;;21.70;14.50;;;10.10;99.90;;;;;;4901722;29;20058;-88
2023/01/07 06:18:55;;;;;;;16.27;12.83;;;10.10;99.90;;;;;;4874603;29;20143;-89
2023/01/07 06:21:21;;;;;;;19.00;13.20;;;10.10;99.90;;;;;;4871090;29;20075;-88
2023/01/07 06:23:47;;;;;;;17.30;13.20;;;10.10;99.90;;;;;;4900116;29;20515;-87
2023/01/07 06:26:18;;;;;;;17.97;13.33;;;10.10;99.90;;;;;;4871727;29;20115;-89
2023/01/07 06:28:43;;;;;;;15.33;12.37;;;10.10;99.90;;;;;;4883180;29;20083;-88
2023/01/07 06:31:10;;;;;;;16.17;12.53;;;10.10;99.90;;;;;;4877460;29;20087;-88
2023/01/07 06:33:36;;;;;;;14.63;12.10;;;10.10;99.90;;;;;;4903032;29;20111;-90
2023/01/07 06:36:03;;;;;;;17.07;12.27;;;10.10;99.90;;;;;;4889444;29;20048;-89
2023/01/07 06:38:29;;;;;;;16.60;12.07;;;10.10;99.90;;;;;;4899822;29;20099;-88
2023/01/07 06:40:57;;;;;;;16.77;11.70;;;10.10;99.90;;;;;;4868428;29;20062;-89
2023/01/07 06:43:23;;;;;;;16.00;11.97;;;10.10;99.90;;;;;;4903098;29;20400;-90
2023/01/07 06:45:49;;;;;;;16.53;12.17;;;10.10;99.90;;;;;;4895540;29;20082;-88
2023/01/07 06:48:15;;;;;;;15.27;11.37;;;10.10;99.90;;;;;;4902013;29;20377;-89
2023/01/07 06:50:43;;;;;;;13.47;11.67;;;10.10;99.90;;;;;;4874598;29;20087;-88
2023/01/07 06:53:09;;;;;;;14.50;11.43;;;10.10;99.90;;;;;;4897756;29;20041;-88
2023/01/07 06:55:34;;;;;;;14.00;11.33;;;10.10;99.90;;;;;;4878153;29;20052;-89
2023/01/07 06:58:00;;;;;;;13.03;10.37;;;10.10;99.90;;;;;;4883564;29;20048;-88
2023/01/07 07:00:26;;;;;;;12.67;10.53;;;10.10;99.90;;;;;;4893304;29;20056;-90
2023/01/07 07:02:52;;;;;;;13.37;10.37;;;10.10;99.90;;;;;;4907124;29;20071;-89
2023/01/07 07:05:18;;;;;;;12.43;9.83;;;10.10;99.90;;;;;;4903209;29;20454;-88
2023/01/07 07:07:44;;;;;;;11.90;9.67;;;10.10;99.90;;;;;;4897753;29;20060;-89
2023/01/07 07:10:09;;;;;;;13.27;10.10;;;10.10;99.90;;;;;;4876920;29;20049;-89
2023/01/07 07:12:36;;;;;;;13.00;9.70;;;10.10;99.90;;;;;;4902640;29;20710;-89
2023/01/07 07:15:04;;;;;;;11.60;9.53;;;10.10;99.90;;;;;;4884655;29;20147;-89
2023/01/07 07:17:30;;;;;;;14.13;10.03;;;10.10;99.90;;;;;;4871464;29;20393;-89
2023/01/07 07:19:55;;;;;;;12.10;9.60;;;10.10;99.90;;;;;;4902758;29;20051;-88
2023/01/07 07:22:21;;;;;;;13.03;9.43;;;10.10;99.90;;;;;;4879639;29;20052;-89
2023/01/07 07:24:47;;;;;;;13.80;9.57;;;10.10;99.90;;;;;;4867510;29;20093;-87
2023/01/07 07:27:13;;;;;;;11.10;9.57;;;10.10;99.90;;;;;;4865846;29;20060;-88
2023/01/07 07:29:39;;;;;;;9.93;8.90;;;10.10;99.90;;;;;;4870459;29;20056;-90
2023/01/07 07:32:05;;;;;;;11.00;8.77;;;10.10;99.90;;;;;;4873590;29;20033;-88
2023/01/07 07:34:30;;;;;;;11.60;8.20;;;10.10;99.90;;;;;;4876910;29;20588;-90
2023/01/07 07:36:58;;;;;;;12.33;8.40;;;10.10;99.90;;;;;;4885139;29;20139;-89
2023/01/07 07:39:24;;;;;;;11.07;8.40;;;10.10;99.90;;;;;;4886523;29;20071;-89
2023/01/07 07:41:50;;;;;;;13.30;8.50;;;10.10;99.90;;;;;;4875736;29;20056;-89
2023/01/07 07:44:16;;;;;;;9.50;8.20;;;10.10;99.90;;;;;;4867178;29;20081;-89
2023/01/07 07:46:41;;;;;;;12.07;7.73;;;10.10;99.90;;;;;;4885417;29;20467;-90
2023/01/07 07:49:07;;;;;;;10.87;8.37;;;10.10;99.90;;;;;;4882278;29;20508;-90
2023/01/07 07:51:33;;;;;;;10.40;7.83;;;10.10;99.90;;;;;;4878456;29;20045;-89
2023/01/07 07:53:59;;;;;;;9.17;8.10;;;10.10;99.90;;;;;;4883632;29;20144;-88
2023/01/07 07:56:24;;;;;;;22.23;11.30;;;10.10;99.90;;;;;;4890579;29;20135;-88
2023/01/07 07:58:50;;;;;;;9.83;7.93;;;10.10;99.90;;;;;;4894735;29;20051;-88
2023/01/07 08:01:16;;;;;;;11.27;8.27;;;10.10;99.90;;;;;;4897397;29;20055;-88
2023/01/07 08:03:42;;;;;;;9.60;7.73;;;10.00;99.90;;;;;;4893680;29;20143;-86
2023/01/07 08:06:08;;;;;;;10.20;7.40;;;10.10;99.90;;;;;;4886401;29;20500;-86
2023/01/07 08:08:34;;;;;;;10.03;7.97;;;10.00;99.90;;;;;;4882624;29;20048;-88
2023/01/07 08:11:02;;;;;;;10.13;8.40;;;10.00;99.90;;;;;;4883256;29;20056;-87
2023/01/07 08:13:29;;;;;;;10.73;8.37;;;10.00;99.90;;;;;;4899780;29;20054;-87
2023/01/07 08:15:55;;;;;;;14.40;9.43;;;10.00;99.90;;;;;;4877420;29;20401;-88
2023/01/07 08:18:22;;;;;;;12.77;7.60;;;10.00;99.90;;;;;;4895449;29;20059;-86
2023/01/07 08:20:49;;;;;;;14.27;9.20;;;10.00;99.90;;;;;;4920600;29;20087;-87
2023/01/07 08:23:15;;;;;;;11.67;7.90;;;10.00;99.90;;;;;;4876980;29;20055;-89
2023/01/07 08:25:41;;;;;;;13.37;8.63;;;10.00;99.90;;;;;;4892445;29;20143;-89
2023/01/07 08:28:09;;;;;;;12.20;8.77;;;10.00;99.90;;;;;;4877082;29;20088;-90
2023/01/07 08:30:35;;;;;;;12.50;8.87;;;10.00;99.90;;;;;;4875994;29;20055;-89
2023/01/07 08:33:04;;;;;;;16.87;10.10;;;10.00;99.90;;;;;;4871567;29;20133;-89
2023/01/07 08:35:30;;;;;;;11.27;7.93;;;10.10;99.90;;;;;;4882350;29;20412;-89
2023/01/07 08:38:07;;;;;;;9.23;7.70;;;10.10;99.90;;;;;;4872762;29;20063;-89
2023/01/07 08:40:34;;;;;;;11.17;8.13;;;10.10;99.90;;;;;;4884331;29;20048;-89
2023/01/07 08:43:01;;;;;;;9.37;7.93;;;10.00;99.90;;;;;;4890523;29;20051;-88
2023/01/07 08:45:28;;;;;;;10.33;7.53;;;10.00;99.90;;;;;;4908728;29;20052;-89
2023/01/07 08:47:57;;;;;;;10.47;7.63;;;10.00;99.90;;;;;;4901710;29;20487;-89
2023/01/07 08:50:28;;;;;;;10.77;8.07;;;9.90;99.90;;;;;;4885740;29;20048;-87
2023/01/07 08:52:57;;;;;;;9.13;8.20;;;9.90;99.90;;;;;;4889345;29;20111;-90
2023/01/07 08:55:23;;;;;;;9.43;7.43;;;9.90;99.90;;;;;;4872032;29;20036;-89
2023/01/07 08:57:49;;;;;;;9.63;6.77;;;9.80;99.90;;;;;;4900677;29;20516;-90
2023/01/07 09:00:16;;;;;;;8.47;6.60;;;9.80;99.90;;;;;;4877439;29;20055;-88
2023/01/07 09:02:42;;;;;;;8.90;6.87;;;9.90;99.90;;;;;;4875745;29;20111;-90
2023/01/07 09:05:09;;;;;;;8.00;6.87;;;9.90;99.90;;;;;;4883436;29;20052;-90
2023/01/07 09:07:34;;;;;;;9.20;6.60;;;9.90;99.90;;;;;;4878384;29;20413;-90
2023/01/07 09:10:01;;;;;;;7.70;6.10;;;9.90;99.90;;;;;;4894213;29;20044;-89
2023/01/07 09:12:29;;;;;;;8.03;6.60;;;10.00;99.90;;;;;;4879158;29;20122;-89
2023/01/07 09:14:55;;;;;;;7.77;6.53;;;10.00;99.90;;;;;;4878659;29;20441;-90
2023/01/07 09:17:21;;;;;;;8.00;5.47;;;9.90;99.90;;;;;;4896381;29;20059;-89
2023/01/07 09:19:47;;;;;;;7.67;5.80;;;9.90;99.90;;;;;;4871016;29;20052;-88
2023/01/07 09:22:12;;;;;;;8.23;5.93;;;9.90;99.90;;;;;;4872702;29;20052;-88
2023/01/07 09:24:38;;;;;;;8.13;6.07;;;9.90;99.90;;;;;;4872074;29;20048;-91
2023/01/07 09:27:04;;;;;;;5.80;5.13;;;9.90;99.90;;;;;;4857844;29;20111;-88
2023/01/07 09:29:30;;;;;;;6.80;5.43;;;9.90;99.90;;;;;;4870642;29;20092;-87
2023/01/07 09:31:56;;;;;;;6.20;5.60;;;9.90;99.90;;;;;;4871798;29;20048;-88
2023/01/07 09:34:21;;;;;;;6.93;5.80;;;10.00;99.90;;;;;;4885285;29;20128;-89
2023/01/07 09:36:47;;;;;;;6.47;5.73;;;10.00;99.90;;;;;;4870705;29;20077;-88
2023/01/07 09:39:13;;;;;;;6.47;5.10;;;10.00;99.90;;;;;;4854076;29;20285;-89
2023/01/07 09:42:02;;;;;;;7.17;5.03;;;10.00;99.90;;;;;;4889873;29;20052;-88
2023/01/07 09:45:14;;;;;;;7.53;6.13;;;10.00;99.90;;;;;;4869705;29;20056;-88
2023/01/07 09:47:44;;;;;;;6.03;5.20;;;10.00;99.90;;;;;;4855691;29;20060;-88
2023/01/07 09:50:25;;;;;;;8.30;5.47;;;10.00;99.90;;;;;;4896118;29;20090;-90
2023/01/07 09:52:55;;;;;;;7.23;4.80;;;10.00;99.90;;;;;;4881076;29;20143;-88
2023/01/07 09:55:41;;;;;;;5.53;4.10;;;10.00;99.90;;;;;;4897327;29;20055;-88
2023/01/07 09:58:15;;;;;;;5.33;4.53;;;10.00;99.90;;;;;;4870717;29;20121;-90
2023/01/07 10:01:00;;;;;;;4.50;3.90;;;10.00;99.90;;;;;;4897765;29;20083;-89
2023/01/07 10:03:51;;;;;;;5.10;4.03;;;10.10;99.90;;;;;;4876738;29;20040;-88
2023/01/07 10:06:58;;;;;;;6.20;3.92;;;10.10;99.90;;;;;;4873655;29;20087;-87
2023/01/07 10:09:52;;;;;;;5.73;3.90;;;10.10;99.90;;;;;;4882421;29;20052;-92
2023/01/07 10:12:39;;;;;;;6.27;4.03;;;10.20;99.90;;;;;;4872452;29;20083;-91
2023/01/07 10:15:14;;;;;;;6.70;3.87;;;10.20;99.90;;;;;;4874393;29;20049;-89
2023/01/07 10:18:07;;;;;;;6.00;4.40;;;10.20;99.90;;;;;;4895756;29;20063;-90
2023/01/07 10:20:58;;;;;;;4.10;3.70;;;10.20;99.90;;;;;;4884648;29;20376;-91
2023/01/07 10:23:32;;;;;;;4.93;3.70;;;10.20;99.90;;;;;;4878110;29;20047;-88
2023/01/07 10:26:01;;;;;;;4.60;3.97;;;10.30;99.90;;;;;;4883855;29;20060;-89
2023/01/07 10:28:43;;;;;;;5.00;3.50;;;10.30;99.90;;;;;;4887157;29;20049;-89
2023/01/07 10:31:17;;;;;;;6.28;3.55;;;10.30;99.90;;;;;;4882796;29;20072;-88
2023/01/07 10:33:46;;;;;;;3.53;3.20;;;10.40;99.90;;;;;;4871097;29;20044;-89
2023/01/07 10:36:30;;;;;;;4.03;3.10;;;10.40;99.90;;;;;;4871352;29;20131;-86
2023/01/07 10:39:05;;;;;;;4.27;3.10;;;10.40;99.90;;;;;;4875925;29;20048;-86
2023/01/07 10:41:55;;;;;;;3.70;3.20;;;10.40;99.90;;;;;;4884985;29;20044;-88
2023/01/07 10:44:36;;;;;;;3.90;3.10;;;10.50;99.90;;;;;;4883272;29;20072;-89
2023/01/07 10:47:31;;;;;;;4.43;3.00;;;10.50;99.90;;;;;;4879840;29;20142;-89
2023/01/07 10:50:48;;;;;;;3.00;2.70;;;10.50;99.90;;;;;;4895571;29;20126;-89
2023/01/07 10:53:30;;;;;;;3.00;2.80;;;10.50;99.90;;;;;;4822888;29;20097;-87
2023/01/07 10:56:09;;;;;;;4.10;2.70;;;10.50;99.90;;;;;;4891457;29;20036;-87
2023/01/07 10:58:40;;;;;;;4.53;3.17;;;10.60;99.90;;;;;;4879499;29;20045;-86
2023/01/07 11:01:44;;;;;;;3.35;2.83;;;10.60;99.90;;;;;;4912274;29;20051;-88
2023/01/07 11:04:23;;;;;;;3.87;2.50;;;10.60;99.90;;;;;;4906848;29;20447;-89
2023/01/07 11:07:17;;;;;;;3.40;3.10;;;10.60;99.90;;;;;;4889885;29;20478;-89
2023/01/07 11:09:45;;;;;;;2.83;2.57;;;10.70;99.90;;;;;;4894550;29;20051;-89
2023/01/07 11:12:41;;;;;;;3.60;3.00;;;10.70;99.90;;;;;;4882617;29;20385;-89
2023/01/07 11:15:33;;;;;;;3.77;2.67;;;10.70;99.90;;;;;;4915104;29;20514;-89
2023/01/07 11:18:08;;;;;;;2.60;2.40;;;10.70;99.90;;;;;;4892948;29;20048;-90
2023/01/07 11:20:42;;;;;;;6.40;2.50;;;10.70;99.90;;;;;;4876175;29;20127;-90
2023/01/07 11:23:28;;;;;;;2.63;2.43;;;10.80;99.90;;;;;;4875501;29;20227;-88
2023/01/07 11:26:06;;;;;;;2.50;2.30;;;10.80;99.90;;;;;;4889906;29;20057;-88
2023/01/07 11:28:33;;;;;;;5.00;2.80;;;10.80;99.90;;;;;;4883171;29;20067;-89
2023/01/07 11:31:00;;;;;;;3.50;2.70;;;10.80;99.90;;;;;;4869596;29;20048;-89
2023/01/07 11:33:53;;;;;;;3.30;2.50;;;10.80;99.90;;;;;;4876647;29;20131;-90
2023/01/07 11:36:19;;;;;;;3.47;3.00;;;10.80;99.90;;;;;;4898760;29;20044;-93
2023/01/07 11:38:46;;;;;;;5.67;3.53;;;10.80;99.90;;;;;;4886951;29;20507;-89
2023/01/07 11:41:22;;;;;;;3.63;3.13;;;10.80;99.90;;;;;;4886698;29;20059;-89
2023/01/07 11:44:06;;;;;;;3.22;2.40;;;10.80;99.90;;;;;;4898675;29;20373;-92
2023/01/07 11:46:32;;;;;;;3.25;2.30;;;10.80;99.90;;;;;;4903925;29;20059;-91
2023/01/07 11:48:59;;;;;;;3.70;2.57;;;10.80;99.90;;;;;;4896577;29;20044;-90
2023/01/07 11:51:26;;;;;;;3.20;2.50;;;10.80;99.90;;;;;;4894627;29;20061;-88
2023/01/07 11:53:57;;;;;;;3.40;2.87;;;10.80;99.90;;;;;;4893364;29;20319;-89
2023/01/07 11:56:35;;;;;;;3.10;2.67;;;10.80;99.90;;;;;;4890445;29;20083;-89
2023/01/07 11:59:20;;;;;;;3.43;2.50;;;10.80;99.90;;;;;;4896072;29;20497;-89
2023/01/07 12:02:27;;;;;;;3.13;2.43;;;10.80;99.90;;;;;;4896960;29;20143;-87
2023/01/07 12:05:20;;;;;;;3.40;2.70;;;10.80;99.90;;;;;;4909511;29;20044;-89
2023/01/07 12:07:56;;;;;;;3.07;2.33;;;10.90;99.90;;;;;;4878848;29;20049;-91
2023/01/07 12:10:33;;;;;;;3.85;2.80;;;10.90;99.90;;;;;;4884604;29;20044;-89
2023/01/07 12:13:02;;;;;;;3.07;2.77;;;10.90;99.90;;;;;;4897130;29;20045;-86
2023/01/07 12:15:32;;;;;;;3.30;2.47;;;10.90;99.90;;;;;;4893413;29;20059;-90
2023/01/07 12:18:06;;;;;;;3.13;2.37;;;11.00;99.90;;;;;;4905291;29;20048;-90
2023/01/07 12:20:32;;;;;;;2.83;2.53;;;11.00;99.90;;;;;;4885657;29;20084;-89
2023/01/07 12:23:23;;;;;;;2.28;2.05;;;11.00;99.90;;;;;;4876637;29;20074;-92
2023/01/07 12:25:58;;;;;;;3.17;2.10;;;11.00;99.90;;;;;;4874567;29;20497;-89
2023/01/07 12:28:50;;;;;;;3.53;2.00;;;11.00;99.90;;;;;;4887952;29;20522;-90
2023/01/07 12:31:21;;;;;;;2.33;2.10;;;11.00;99.90;;;;;;4886819;29;20051;-91
2023/01/07 12:34:16;;;;;;;2.97;2.38;;;11.00;99.90;;;;;;4894078;29;20369;-90
2023/01/07 12:36:54;;;;;;;2.20;1.95;;;11.00;99.90;;;;;;4883524;29;20060;-90
2023/01/07 12:39:33;;;;;;;3.33;2.43;;;11.00;99.90;;;;;;4882733;29;20062;-88
2023/01/07 12:42:08;;;;;;;6.10;2.30;;;11.00;99.90;;;;;;4893574;29;20484;-90
2023/01/07 12:44:39;;;;;;;2.28;2.08;;;11.00;99.90;;;;;;4901963;29;20040;-90
2023/01/07 12:47:14;;;;;;;2.73;2.23;;;11.00;99.90;;;;;;4887812;29;20515;-88
2023/01/07 12:50:05;;;;;;;4.07;1.83;;;11.00;99.90;;;;;;4867963;29;20052;-89
2023/01/07 12:52:48;;;;;;;2.30;2.00;;;11.00;99.90;;;;;;4883893;29;20048;-90
2023/01/07 12:55:45;;;;;;;3.47;2.17;;;11.10;99.90;;;;;;4877595;29;20402;-90
2023/01/07 12:58:33;;;;;;;2.53;2.00;;;11.10;99.90;;;;;;4881561;29;20059;-90
2023/01/07 13:01:10;;;;;;;2.27;2.07;;;11.10;99.90;;;;;;4897412;29;20689;-89